createdAt,value
2023-02-28T00:01:12.210Z,101523.84
2023-02-28T00:03:39.123Z,101535.72
2023-02-28T00:06:07.352Z,101539.34
2023-02-28T00:08:34.699Z,101537.50
2023-02-28T00:11:04.003Z,101521.66
2023-02-28T00:13:30.959Z,101524.31
2023-02-28T00:16:07.701Z,101543.75
2023-02-28T00:18:34.568Z,101528.56
2023-02-28T00:21:01.302Z,101558.66
2023-02-28T00:23:29.149Z,101560.66
2023-02-28T00:25:56.404Z,101563.28
2023-02-28T00:28:23.961Z,101556.59
2023-02-28T00:30:50.820Z,101564.44
2023-02-28T00:33:17.736Z,101541.56
2023-02-28T00:35:47.463Z,101560.03
2023-02-28T00:38:15.001Z,101565.28
2023-02-28T00:40:41.980Z,101541.38
2023-02-28T00:43:08.737Z,101556.50
2023-02-28T00:45:35.423Z,101540.38
2023-02-28T00:48:02.224Z,101559.19
2023-02-28T00:50:29.364Z,101566.16
2023-02-28T00:52:57.841Z,101565.44
2023-02-28T00:55:24.655Z,101568.78
2023-02-28T00:57:51.420Z,101571.31
2023-02-28T01:00:18.593Z,101545.78
2023-02-28T01:02:45.386Z,101555.75
2023-02-28T01:05:12.126Z,101556.66
2023-02-28T01:07:39.442Z,101557.75
2023-02-28T01:10:06.606Z,101562.19
2023-02-28T01:12:33.561Z,101565.63
2023-02-28T01:15:00.384Z,101551.72
2023-02-28T01:17:27.505Z,101555.97
2023-02-28T01:19:56.835Z,101539.09
2023-02-28T01:22:25.774Z,101561.13
2023-02-28T01:24:52.602Z,101556.91
2023-02-28T01:27:19.395Z,101561.28
2023-02-28T01:29:46.332Z,101546.09
2023-02-28T01:32:13.142Z,101560.38
2023-02-28T01:34:40.038Z,101534.94
2023-02-28T01:37:06.818Z,101557.28
2023-02-28T01:39:33.574Z,101533.31
2023-02-28T01:42:00.283Z,101550.50
2023-02-28T01:45:07.603Z,101546.25
2023-02-28T01:47:39.605Z,101544.94
2023-02-28T01:50:10.847Z,101555.13
2023-02-28T01:52:38.050Z,101551.75
2023-02-28T01:55:07.777Z,101553.50
2023-02-28T01:57:40.417Z,101524.50
2023-02-28T02:00:15.676Z,101551.13
2023-02-28T02:02:50.306Z,101535.31
2023-02-28T02:05:21.458Z,101562.69
2023-02-28T02:07:52.090Z,101532.78
2023-02-28T02:10:25.652Z,101558.50
2023-02-28T02:13:26.704Z,101561.22
2023-02-28T02:15:59.281Z,101556.13
2023-02-28T02:18:52.272Z,101557.91
2023-02-28T02:21:19.578Z,101553.59
2023-02-28T02:24:21.683Z,101558.75
2023-02-28T02:27:14.615Z,101555.13
2023-02-28T02:30:12.216Z,101549.25
2023-02-28T02:32:51.133Z,101547.34
2023-02-28T02:35:41.441Z,101545.47
2023-02-28T02:38:35.758Z,101541.25
2023-02-28T02:41:29.539Z,101545.41
2023-02-28T02:44:05.732Z,101542.63
2023-02-28T02:46:43.616Z,101529.06
2023-02-28T02:49:16.818Z,101541.78
2023-02-28T02:51:45.551Z,101524.75
2023-02-28T02:54:29.762Z,101550.34
2023-02-28T02:57:00.556Z,101543.31
2023-02-28T02:59:29.862Z,101537.84
2023-02-28T03:02:00.798Z,101517.66
2023-02-28T03:04:33.400Z,101538.78
2023-02-28T03:07:00.419Z,101539.94
2023-02-28T03:09:27.654Z,101528.06
2023-02-28T03:11:56.873Z,101550.94
2023-02-28T03:14:41.957Z,101556.50
2023-02-28T03:17:39.772Z,101545.88
2023-02-28T03:20:27.838Z,101532.28
2023-02-28T03:23:04.307Z,101556.19
2023-02-28T03:25:34.116Z,101563.38
2023-02-28T03:28:07.442Z,101559.06
2023-02-28T03:30:38.125Z,101562.53
2023-02-28T03:33:16.501Z,101543.78
2023-02-28T03:35:56.712Z,101567.00
2023-02-28T03:38:28.311Z,101567.16
2023-02-28T03:41:40.059Z,101552.13
2023-02-28T03:44:18.993Z,101553.13
2023-02-28T03:46:53.952Z,101576.19
2023-02-28T03:49:32.072Z,101570.16
2023-02-28T03:52:02.147Z,101582.34
2023-02-28T03:54:32.668Z,101572.69
2023-02-28T03:57:14.492Z,101574.41
2023-02-28T03:59:45.514Z,101565.91
2023-02-28T04:02:12.432Z,101583.41
2023-02-28T04:04:39.514Z,101574.72
2023-02-28T04:07:08.940Z,101575.63
2023-02-28T04:09:35.932Z,101561.34
2023-02-28T04:12:02.730Z,101560.94
2023-02-28T04:14:29.460Z,101573.59
2023-02-28T04:16:56.276Z,101566.09
2023-02-28T04:19:22.998Z,101559.19
2023-02-28T04:21:52.719Z,101583.00
2023-02-28T04:24:25.246Z,101583.09
2023-02-28T04:26:54.794Z,101584.84
2023-02-28T04:29:28.229Z,101586.41
2023-02-28T04:31:56.083Z,101572.69
2023-02-28T04:34:23.001Z,101572.38
2023-02-28T04:37:11.599Z,101576.84
2023-02-28T04:39:40.544Z,101559.03
2023-02-28T04:42:07.691Z,101587.25
2023-02-28T04:44:34.452Z,101580.31
2023-02-28T04:47:01.307Z,101582.22
2023-02-28T04:49:28.169Z,101584.84
2023-02-28T04:51:55.044Z,101587.53
2023-02-28T04:54:22.113Z,101568.13
2023-02-28T04:56:51.012Z,101589.25
2023-02-28T04:59:18.066Z,101584.31
2023-02-28T05:01:48.057Z,101592.31
2023-02-28T05:04:14.859Z,101591.47
2023-02-28T05:06:41.641Z,101572.78
2023-02-28T05:09:08.429Z,101591.31
2023-02-28T05:11:36.311Z,101576.16
2023-02-28T05:14:05.336Z,101591.78
2023-02-28T05:16:32.980Z,101595.94
2023-02-28T05:19:00.295Z,101584.81
2023-02-28T05:21:29.973Z,101590.91
2023-02-28T05:24:00.805Z,101597.84
2023-02-28T05:26:28.870Z,101590.00
2023-02-28T05:28:56.139Z,101570.31
2023-02-28T05:31:23.461Z,101601.19
2023-02-28T05:33:50.279Z,101609.31
2023-02-28T05:36:17.165Z,101595.72
2023-02-28T05:38:44.186Z,101601.31
2023-02-28T05:41:12.625Z,101606.69
2023-02-28T05:43:39.470Z,101602.38
2023-02-28T05:46:12.040Z,101590.72
2023-02-28T05:48:40.450Z,101602.91
2023-02-28T05:51:08.754Z,101600.06
2023-02-28T05:53:36.152Z,101602.19
2023-02-28T05:56:03.703Z,101613.81
2023-02-28T05:58:31.979Z,101604.56
2023-02-28T06:01:00.305Z,101623.34
2023-02-28T06:03:27.921Z,101601.97
2023-02-28T06:05:54.971Z,101598.72
2023-02-28T06:08:21.907Z,101629.22
2023-02-28T06:10:48.759Z,101635.25
2023-02-28T06:13:16.326Z,101648.34
2023-02-28T06:15:43.350Z,101630.50
2023-02-28T06:18:10.136Z,101650.09
2023-02-28T06:20:37.353Z,101624.34
2023-02-28T06:23:04.376Z,101650.75
2023-02-28T06:25:31.289Z,101666.25
2023-02-28T06:27:58.288Z,101650.97
2023-02-28T06:30:27.859Z,101673.41
2023-02-28T06:32:55.557Z,101674.91
2023-02-28T06:35:22.783Z,101683.38
2023-02-28T06:37:49.593Z,101678.00
2023-02-28T06:40:16.828Z,101682.25
2023-02-28T06:42:44.003Z,101678.13
2023-02-28T06:45:12.256Z,101680.47
2023-02-28T06:47:40.676Z,101665.19
2023-02-28T06:50:09.296Z,101662.28
2023-02-28T06:52:38.852Z,101680.97
2023-02-28T06:55:07.203Z,101683.50
2023-02-28T06:57:36.093Z,101678.28
2023-02-28T07:00:08.551Z,101663.91
2023-02-28T07:02:38.771Z,101681.66
2023-02-28T07:05:06.390Z,101682.94
2023-02-28T07:07:33.568Z,101667.00
2023-02-28T07:10:00.428Z,101667.56
2023-02-28T07:12:27.167Z,101688.84
2023-02-28T07:14:55.532Z,101683.34
2023-02-28T07:17:22.343Z,101684.16
2023-02-28T07:19:49.028Z,101682.38
2023-02-28T07:22:16.109Z,101689.19
2023-02-28T07:24:42.924Z,101683.94
2023-02-28T07:27:09.735Z,101676.06
2023-02-28T07:29:36.473Z,101680.56
2023-02-28T07:32:03.399Z,101672.53
2023-02-28T07:34:30.338Z,101678.00
2023-02-28T07:36:57.163Z,101690.06
2023-02-28T07:39:24.101Z,101678.63
2023-02-28T07:41:50.830Z,101684.44
2023-02-28T07:44:17.858Z,101681.97
2023-02-28T07:46:44.608Z,101684.03
2023-02-28T07:49:11.449Z,101688.06
2023-02-28T07:51:38.307Z,101689.75
2023-02-28T07:54:05.395Z,101680.88
2023-02-28T07:56:32.445Z,101680.50
2023-02-28T07:58:59.396Z,101671.84
2023-02-28T08:01:26.643Z,101681.72
2023-02-28T08:03:54.871Z,101689.97
2023-02-28T08:06:23.807Z,101674.38
2023-02-28T08:08:50.986Z,101672.38
2023-02-28T08:11:18.970Z,101678.91
2023-02-28T08:13:46.593Z,101667.78
2023-02-28T08:16:18.500Z,101662.06
2023-02-28T08:18:45.627Z,101691.97
2023-02-28T08:21:12.526Z,101692.78
2023-02-28T08:23:39.985Z,101699.88
2023-02-28T08:26:07.265Z,101655.34
2023-02-28T08:28:34.115Z,101683.63
2023-02-28T08:31:00.865Z,101663.78
2023-02-28T08:33:28.874Z,101678.28
2023-02-28T08:35:57.087Z,101681.63
2023-02-28T08:38:24.627Z,101659.50
2023-02-28T08:40:51.514Z,101687.03
2023-02-28T08:43:18.326Z,101693.47
2023-02-28T08:45:45.172Z,101698.91
2023-02-28T08:48:12.025Z,101694.78
2023-02-28T08:50:38.775Z,101688.16
2023-02-28T08:53:05.584Z,101692.66
2023-02-28T08:55:32.301Z,101697.31
2023-02-28T08:57:59.505Z,101701.31
2023-02-28T09:00:26.427Z,101695.78
2023-02-28T09:02:53.570Z,101698.94
2023-02-28T09:05:20.387Z,101697.31
2023-02-28T09:07:47.102Z,101695.53
2023-02-28T09:10:13.844Z,101697.41
2023-02-28T09:12:40.635Z,101700.53
2023-02-28T09:15:08.199Z,101707.25
2023-02-28T09:17:35.135Z,101703.00
2023-02-28T09:20:01.872Z,101707.84
2023-02-28T09:22:31.674Z,101689.97
2023-02-28T09:24:58.344Z,101700.38
2023-02-28T09:27:25.134Z,101701.38
2023-02-28T09:29:51.944Z,101699.50
2023-02-28T09:32:19.071Z,101686.38
2023-02-28T09:34:45.973Z,101704.34
2023-02-28T09:37:12.697Z,101698.75
2023-02-28T09:39:39.785Z,101694.75
2023-02-28T09:42:08.736Z,101697.38
2023-02-28T09:44:46.165Z,101692.31
2023-02-28T09:47:31.097Z,101678.13
2023-02-28T09:50:04.350Z,101709.56
2023-02-28T09:52:33.460Z,101693.28
2023-02-28T09:55:21.347Z,101695.66
2023-02-28T09:57:48.701Z,101701.34
2023-02-28T10:00:19.440Z,101699.09
2023-02-28T10:03:14.276Z,101692.72
2023-02-28T10:06:15.164Z,101695.34
2023-02-28T10:08:53.298Z,101680.16
2023-02-28T10:11:21.795Z,101695.56
2023-02-28T10:14:06.868Z,101698.78
2023-02-28T10:17:09.245Z,101697.09
2023-02-28T10:19:47.553Z,101692.34
2023-02-28T10:22:25.044Z,101690.66
2023-02-28T10:24:54.094Z,101692.66
2023-02-28T10:27:26.984Z,101687.31
2023-02-28T10:29:56.979Z,101693.06
2023-02-28T10:32:31.246Z,101668.69
2023-02-28T10:35:01.892Z,101678.59
2023-02-28T10:37:29.471Z,101681.91
2023-02-28T10:39:57.390Z,101654.97
2023-02-28T10:42:29.282Z,101683.59
2023-02-28T10:45:16.813Z,101687.66
2023-02-28T10:48:12.780Z,101672.75
2023-02-28T10:50:39.702Z,101669.41
2023-02-28T10:53:16.934Z,101646.03
2023-02-28T10:55:44.500Z,101662.22
2023-02-28T10:58:25.638Z,101638.41
2023-02-28T11:00:53.500Z,101658.91
2023-02-28T11:03:32.583Z,101647.69
2023-02-28T11:06:05.024Z,101651.00
2023-02-28T11:08:32.000Z,101649.22
2023-02-28T11:11:01.755Z,101649.69
2023-02-28T11:13:35.033Z,101640.72
2023-02-28T11:16:08.533Z,101635.41
2023-02-28T11:18:51.000Z,101624.88
2023-02-28T11:21:23.199Z,101617.22
2023-02-28T11:23:54.143Z,101623.91
2023-02-28T11:26:41.306Z,101615.22
2023-02-28T11:29:26.421Z,101593.22
2023-02-28T11:32:11.707Z,101611.16
2023-02-28T11:34:40.352Z,101596.69
2023-02-28T11:37:17.467Z,101601.66
2023-02-28T11:39:46.476Z,101604.06
2023-02-28T11:42:25.295Z,101598.72
2023-02-28T11:45:13.567Z,101597.47
2023-02-28T11:47:55.123Z,101600.09
2023-02-28T11:50:43.202Z,101596.78
2023-02-28T11:53:41.674Z,101583.81
2023-02-28T11:56:30.172Z,101570.56
2023-02-28T11:59:23.883Z,101580.78
2023-02-28T12:02:23.453Z,101564.13
2023-02-28T12:05:18.692Z,101565.63
2023-02-28T12:07:58.201Z,101557.19
2023-02-28T12:10:43.392Z,101558.84
2023-02-28T12:13:29.154Z,101534.28
2023-02-28T12:16:28.887Z,101557.84
2023-02-28T12:19:33.728Z,101554.75
2023-02-28T12:22:13.352Z,101551.41
2023-02-28T12:24:55.458Z,101549.72
2023-02-28T12:27:26.535Z,101540.31
2023-02-28T12:30:19.936Z,101545.28
2023-02-28T12:32:52.771Z,101538.81
2023-02-28T12:35:33.279Z,101520.84
2023-02-28T12:38:20.598Z,101525.38
2023-02-28T12:41:07.091Z,101528.09
2023-02-28T12:43:43.655Z,101519.56
2023-02-28T12:46:13.756Z,101539.00
2023-02-28T12:48:45.598Z,101533.44
2023-02-28T12:51:14.833Z,101529.41
2023-02-28T12:53:59.042Z,101533.38
2023-02-28T12:56:56.258Z,101525.13
2023-02-28T12:59:23.006Z,101530.41
2023-02-28T13:02:15.878Z,101534.84
2023-02-28T13:04:56.885Z,101531.25
2023-02-28T13:07:27.072Z,101536.94
2023-02-28T13:10:03.154Z,101536.16
2023-02-28T13:12:30.286Z,101520.13
2023-02-28T13:15:17.550Z,101520.47
2023-02-28T13:17:50.548Z,101521.28
2023-02-28T13:20:20.950Z,101514.66
2023-02-28T13:22:50.691Z,101511.97
2023-02-28T13:25:23.472Z,101520.88
2023-02-28T13:27:58.082Z,101510.47
2023-02-28T13:30:55.614Z,101514.09
2023-02-28T13:33:24.315Z,101511.56
2023-02-28T13:36:09.751Z,101510.72
2023-02-28T13:38:41.797Z,101508.63
2023-02-28T13:41:30.636Z,101513.69
2023-02-28T13:44:16.374Z,101508.63
2023-02-28T13:46:49.789Z,101494.78
2023-02-28T13:49:33.497Z,101519.81
2023-02-28T13:52:17.756Z,101515.75
2023-02-28T13:55:00.099Z,101509.66
2023-02-28T13:57:43.747Z,101488.63
2023-02-28T14:00:29.266Z,101514.22
2023-02-28T14:03:08.178Z,101503.22
2023-02-28T14:05:36.279Z,101507.69
2023-02-28T14:08:28.241Z,101499.75
2023-02-28T14:11:06.860Z,101500.03
2023-02-28T14:13:48.337Z,101489.72
2023-02-28T14:16:21.368Z,101492.41
2023-02-28T14:19:04.632Z,101496.56
2023-02-28T14:21:37.555Z,101494.66
2023-02-28T14:24:35.369Z,101490.63
2023-02-28T14:27:26.233Z,101487.88
2023-02-28T14:30:31.176Z,101488.53
2023-02-28T14:33:19.692Z,101479.63
2023-02-28T14:36:06.986Z,101474.88
2023-02-28T14:38:43.958Z,101454.75
2023-02-28T14:41:19.924Z,101476.16
2023-02-28T14:44:17.261Z,101480.59
2023-02-28T14:46:46.269Z,101479.94
2023-02-28T14:49:29.198Z,101475.84
2023-02-28T14:52:07.776Z,101473.63
2023-02-28T14:54:34.764Z,101454.66
2023-02-28T14:57:01.559Z,101472.34
2023-02-28T14:59:30.460Z,101476.66
2023-02-28T15:02:18.989Z,101475.16
2023-02-28T15:04:55.553Z,101472.53
2023-02-28T15:07:29.356Z,101473.47
2023-02-28T15:10:32.095Z,101469.06
2023-02-28T15:13:07.420Z,101453.28
2023-02-28T15:16:01.263Z,101450.00
2023-02-28T15:18:50.685Z,101454.31
2023-02-28T15:21:26.400Z,101461.66
2023-02-28T15:24:01.824Z,101476.97
2023-02-28T15:26:33.993Z,101468.75
2023-02-28T15:29:05.534Z,101462.72
2023-02-28T15:31:53.948Z,101463.97
2023-02-28T15:34:36.952Z,101462.69
2023-02-28T15:37:27.203Z,101443.41
2023-02-28T15:39:56.695Z,101454.41
2023-02-28T15:42:29.574Z,101466.19
2023-02-28T15:44:56.323Z,101467.41
2023-02-28T15:47:27.096Z,101463.97
2023-02-28T15:49:57.769Z,101451.25
2023-02-28T15:52:35.316Z,101478.88
2023-02-28T15:55:19.257Z,101469.69
2023-02-28T15:57:47.556Z,101471.50
2023-02-28T16:00:17.396Z,101472.53
2023-02-28T16:02:44.454Z,101458.34
2023-02-28T16:05:11.437Z,101479.13
2023-02-28T16:07:40.314Z,101482.78
2023-02-28T16:10:09.073Z,101482.97
2023-02-28T16:12:37.856Z,101455.81
2023-02-28T16:15:09.887Z,101459.28
2023-02-28T16:17:39.578Z,101479.47
2023-02-28T16:20:14.791Z,101472.81
2023-02-28T16:22:43.127Z,101477.34
2023-02-28T16:25:15.077Z,101453.00
2023-02-28T16:27:44.761Z,101462.59
2023-02-28T16:30:20.474Z,101480.91
2023-02-28T16:32:47.914Z,101480.16
2023-02-28T16:35:15.125Z,101478.47
2023-02-28T16:37:42.622Z,101479.59
2023-02-28T16:40:34.396Z,101477.78
2023-02-28T16:43:05.044Z,101480.72
2023-02-28T16:45:31.955Z,101458.69
2023-02-28T16:47:58.820Z,101477.59
2023-02-28T16:50:28.584Z,101485.97
2023-02-28T16:52:55.978Z,101480.53
2023-02-28T16:55:24.952Z,101498.56
2023-02-28T16:58:02.286Z,101504.59
2023-02-28T17:00:32.365Z,101509.94
2023-02-28T17:03:00.339Z,101506.94
2023-02-28T17:05:39.052Z,101510.13
2023-02-28T17:08:06.540Z,101489.09
2023-02-28T17:10:33.292Z,101520.00
2023-02-28T17:13:09.566Z,101515.75
2023-02-28T17:15:42.214Z,101518.56
2023-02-28T17:18:16.048Z,101512.47
2023-02-28T17:20:43.348Z,101528.28
2023-02-28T17:23:10.299Z,101505.31
2023-02-28T17:25:37.443Z,101526.47
2023-02-28T17:28:04.580Z,101530.81
2023-02-28T17:30:35.135Z,101532.66
2023-02-28T17:33:02.276Z,101536.16
2023-02-28T17:35:29.359Z,101529.31
2023-02-28T17:37:56.303Z,101527.59
2023-02-28T17:40:25.038Z,101530.22
2023-02-28T17:42:53.399Z,101511.72
2023-02-28T17:45:20.963Z,101535.59
2023-02-28T17:47:50.280Z,101531.25
2023-02-28T17:50:20.061Z,101523.34
2023-02-28T17:52:47.275Z,101514.44
2023-02-28T17:55:14.835Z,101517.91
2023-02-28T17:57:42.976Z,101538.22
2023-02-28T18:00:14.547Z,101538.22
2023-02-28T18:02:42.859Z,101518.66
2023-02-28T18:05:10.512Z,101519.16
2023-02-28T18:07:39.426Z,101534.06
2023-02-28T18:10:07.970Z,101512.81
2023-02-28T18:12:34.735Z,101531.63
2023-02-28T18:15:01.834Z,101535.00
2023-02-28T18:17:28.566Z,101531.72
2023-02-28T18:19:55.328Z,101530.03
2023-02-28T18:22:22.188Z,101535.97
2023-02-28T18:24:48.931Z,101535.09
2023-02-28T18:27:15.915Z,101541.22
2023-02-28T18:29:42.976Z,101539.53
2023-02-28T18:32:10.163Z,101542.16
2023-02-28T18:34:37.087Z,101521.09
2023-02-28T18:37:04.301Z,101528.59
2023-02-28T18:39:32.006Z,101541.31
2023-02-28T18:41:58.986Z,101544.78
2023-02-28T18:44:25.712Z,101548.34
2023-02-28T18:46:52.463Z,101552.09
2023-02-28T18:49:19.850Z,101553.13
2023-02-28T18:51:47.175Z,101552.47
2023-02-28T18:54:15.134Z,101557.53
2023-02-28T18:56:42.454Z,101556.81
2023-02-28T18:59:09.639Z,101531.31
2023-02-28T19:01:36.514Z,101565.81
2023-02-28T19:04:04.684Z,101558.66
2023-02-28T19:06:33.153Z,101562.31
2023-02-28T19:09:02.572Z,101572.66
2023-02-28T19:11:29.740Z,101570.28
2023-02-28T19:13:56.903Z,101555.91
2023-02-28T19:16:24.389Z,101567.66
2023-02-28T19:18:51.691Z,101575.47
2023-02-28T19:21:20.978Z,101550.06
2023-02-28T19:23:47.963Z,101580.81
2023-02-28T19:26:17.438Z,101578.28
2023-02-28T19:28:44.428Z,101581.84
2023-02-28T19:31:14.009Z,101581.84
2023-02-28T19:33:41.791Z,101575.06
2023-02-28T19:36:11.161Z,101578.38
2023-02-28T19:38:38.734Z,101568.88
2023-02-28T19:41:09.278Z,101556.25
2023-02-28T19:43:36.963Z,101576.66
2023-02-28T19:46:04.174Z,101572.50
2023-02-28T19:48:31.023Z,101579.28
2023-02-28T19:50:58.670Z,101578.47
2023-02-28T19:53:26.976Z,101578.47
2023-02-28T19:55:54.733Z,101581.09
2023-02-28T19:58:22.502Z,101576.75
2023-02-28T20:00:49.557Z,101574.97
2023-02-28T20:03:18.337Z,101585.56
2023-02-28T20:05:46.145Z,101577.59
2023-02-28T20:08:13.777Z,101565.19
2023-02-28T20:10:40.676Z,101584.75
2023-02-28T20:13:07.526Z,101582.84
2023-02-28T20:15:34.347Z,101581.19
2023-02-28T20:18:01.087Z,101583.72
2023-02-28T20:20:28.035Z,101577.69
2023-02-28T20:22:54.750Z,101555.50
2023-02-28T20:25:21.530Z,101571.88
2023-02-28T20:27:49.868Z,101571.97
2023-02-28T20:30:16.796Z,101546.47
2023-02-28T20:32:43.908Z,101555.91
2023-02-28T20:35:11.783Z,101562.38
2023-02-28T20:37:39.354Z,101566.75
2023-02-28T20:40:07.470Z,101571.00
2023-02-28T20:42:34.314Z,101558.13
2023-02-28T20:45:01.023Z,101562.38
2023-02-28T20:47:27.783Z,101552.69
2023-02-28T20:49:54.522Z,101536.78
2023-02-28T20:52:21.311Z,101557.94
2023-02-28T20:54:48.055Z,101555.31
2023-02-28T20:57:14.742Z,101545.72
2023-02-28T20:59:41.976Z,101528.78
2023-02-28T21:02:11.545Z,101552.78
2023-02-28T21:04:38.518Z,101536.06
2023-02-28T21:07:05.264Z,101538.97
2023-02-28T21:09:32.044Z,101513.13
2023-02-28T21:11:58.779Z,101530.13
2023-02-28T21:14:26.094Z,101524.22
2023-02-28T21:16:53.082Z,101528.47
2023-02-28T21:19:20.926Z,101529.38
2023-02-28T21:21:48.271Z,101526.66
2023-02-28T21:24:17.893Z,101518.97
2023-02-28T21:26:46.247Z,101500.34
2023-02-28T21:29:13.936Z,101519.63
2023-02-28T21:31:40.855Z,101510.13
2023-02-28T21:34:09.456Z,101506.56
2023-02-28T21:36:39.678Z,101505.13
2023-02-28T21:39:17.117Z,101513.41
2023-02-28T21:41:44.123Z,101505.44
2023-02-28T21:44:18.883Z,101512.50
2023-02-28T21:46:47.236Z,101507.44
2023-02-28T21:49:14.841Z,101509.00
2023-02-28T21:51:42.805Z,101509.97
2023-02-28T21:54:10.883Z,101496.91
2023-02-28T21:56:38.102Z,101484.38
2023-02-28T21:59:06.990Z,101511.81
2023-02-28T22:01:40.568Z,101506.75
2023-02-28T22:04:10.263Z,101491.41
2023-02-28T22:06:41.007Z,101525.81
2023-02-28T22:09:10.166Z,101527.78
2023-02-28T22:11:38.426Z,101526.06
2023-02-28T22:14:06.768Z,101528.88
2023-02-28T22:16:49.598Z,101529.81
2023-02-28T22:19:17.708Z,101521.28
2023-02-28T22:21:45.732Z,101511.19
2023-02-28T22:24:12.527Z,101536.09
2023-02-28T22:26:39.293Z,101532.63
2023-02-28T22:29:06.478Z,101510.69
2023-02-28T22:31:35.738Z,101524.69
2023-02-28T22:34:08.800Z,101538.25
2023-02-28T22:36:36.367Z,101534.84
2023-02-28T22:39:04.446Z,101538.31
2023-02-28T22:41:32.633Z,101538.41
2023-02-28T22:44:02.119Z,101518.75
2023-02-28T22:46:31.753Z,101537.84
2023-02-28T22:49:00.259Z,101538.66
2023-02-28T22:51:28.206Z,101541.31
2023-02-28T22:53:58.429Z,101529.88
2023-02-28T22:56:27.572Z,101528.94
2023-02-28T22:58:57.828Z,101548.34
2023-02-28T23:01:25.547Z,101547.47
2023-02-28T23:03:53.239Z,101550.28
2023-02-28T23:06:30.098Z,101550.28
2023-02-28T23:09:01.417Z,101552.91
2023-02-28T23:11:34.538Z,101553.00
2023-02-28T23:14:02.033Z,101547.94
2023-02-28T23:16:44.188Z,101547.75
2023-02-28T23:19:26.637Z,101520.41
2023-02-28T23:21:54.160Z,101537.25
2023-02-28T23:24:23.828Z,101516.81
2023-02-28T23:26:54.598Z,101514.19
2023-02-28T23:29:23.478Z,101531.72
2023-02-28T23:31:50.490Z,101535.13
2023-02-28T23:34:24.972Z,101495.13
2023-02-28T23:36:53.019Z,101528.66
2023-02-28T23:39:21.164Z,101525.16
2023-02-28T23:41:48.539Z,101530.94
2023-02-28T23:44:17.078Z,101509.41
2023-02-28T23:46:45.512Z,101521.94
2023-02-28T23:49:12.694Z,101532.34
2023-02-28T23:51:39.725Z,101532.44
2023-02-28T23:54:07.334Z,101522.09
2023-02-28T23:56:34.637Z,101522.88
2023-02-28T23:59:01.511Z,101522.88
